Time;durP1;ratioP1;P1;durP2;ratioP2;P2;SDS_P1;SDS_P2;PMS_P1;PMS_P2;Temp;Humidity;BMP_temperature;BMP_pressure;BME280_temperature;BME280_humidity;BME280_pressure;Samples;Min_cycle;Max_cycle;Signal;HPM_P1;HPM_P2
2022/06/21 00:01:55;;;;;;;0.93;0.93;;;14.90;98.10;;;;;;5054700;28;20178;-56
2022/06/21 00:04:20;;;;;;;1.02;1.02;;;14.90;98.10;;;;;;5055285;28;20212;-58
2022/06/21 00:06:46;;;;;;;1.33;1.00;;;14.80;98.00;;;;;;5055133;28;20165;-57
2022/06/21 00:09:13;;;;;;;2.15;1.02;;;14.80;98.40;;;;;;5055212;28;20767;-58
2022/06/21 00:11:39;;;;;;;2.60;1.00;;;14.80;98.50;;;;;;5055126;28;20184;-57
2022/06/21 00:14:05;;;;;;;0.80;0.80;;;14.70;98.70;;;;;;5054665;28;20229;-57
2022/06/21 00:16:32;;;;;;;1.23;1.10;;;14.70;98.40;;;;;;5035297;28;20240;-58
2022/06/21 00:18:57;;;;;;;1.70;1.60;;;14.60;98.60;;;;;;5052854;28;20224;-57
2022/06/21 00:21:32;;;;;;;1.08;1.00;;;14.60;98.90;;;;;;5054783;28;20194;-57
2022/06/21 00:23:57;;;;;;;0.80;0.80;;;14.50;99.10;;;;;;5039245;28;20181;-57
2022/06/21 00:26:25;;;;;;;0.90;0.90;;;14.50;99.40;;;;;;5054931;28;20173;-57
2022/06/21 00:28:51;;;;;;;1.13;1.02;;;14.40;99.50;;;;;;5054973;28;20180;-57
2022/06/21 00:31:22;;;;;;;1.42;0.98;;;14.50;99.70;;;;;;5054560;28;20268;-57
2022/06/21 00:33:49;;;;;;;1.25;1.10;;;14.50;99.80;;;;;;5054173;28;20228;-57
2022/06/21 00:36:23;;;;;;;2.78;1.10;;;14.40;99.80;;;;;;5054419;28;20209;-57
2022/06/21 00:38:50;;;;;;;5.45;2.65;;;14.40;99.80;;;;;;5054555;28;20276;-57
2022/06/21 00:41:18;;;;;;;1.92;1.25;;;14.40;99.90;;;;;;5054464;28;20177;-57
2022/06/21 00:43:50;;;;;;;3.08;1.00;;;14.50;99.80;;;;;;5054244;28;20208;-57
2022/06/21 00:46:37;;;;;;;1.05;1.00;;;14.40;99.80;;;;;;5034642;28;20641;-57
2022/06/21 00:49:10;;;;;;;1.05;1.00;;;14.40;99.80;;;;;;5045504;28;20259;-57
2022/06/21 00:51:41;;;;;;;0.80;0.80;;;14.40;99.90;;;;;;5054358;28;20516;-57
2022/06/21 00:54:22;;;;;;;0.90;0.90;;;14.30;99.80;;;;;;5034482;28;20220;-57
2022/06/21 00:56:58;;;;;;;2.10;1.15;;;14.20;99.90;;;;;;5040687;28;20189;-57
2022/06/21 00:59:27;;;;;;;3.72;1.00;;;14.20;99.90;;;;;;5054100;28;20522;-57
2022/06/21 01:01:59;;;;;;;2.25;1.30;;;14.10;99.90;;;;;;5053746;28;20194;-57
2022/06/21 01:04:34;;;;;;;1.20;1.10;;;14.10;99.90;;;;;;5054086;28;20213;-58
2022/06/21 01:07:01;;;;;;;2.10;1.30;;;14.00;99.90;;;;;;5053474;28;20543;-57
2022/06/21 01:09:38;;;;;;;1.80;1.08;;;14.00;99.90;;;;;;5054088;28;20193;-58
2022/06/21 01:12:14;;;;;;;1.08;0.90;;;14.00;99.90;;;;;;5053747;28;20719;-57
2022/06/21 01:14:46;;;;;;;1.20;1.00;;;14.00;99.90;;;;;;5053635;28;20251;-57
2022/06/21 01:17:12;;;;;;;1.55;1.10;;;14.00;99.90;;;;;;5053743;28;20178;-57
2022/06/21 01:19:42;;;;;;;1.27;0.90;;;14.00;99.90;;;;;;5053556;28;20225;-57
2022/06/21 01:22:37;;;;;;;0.90;0.90;;;14.00;99.90;;;;;;5053746;28;20264;-58
2022/06/21 01:25:20;;;;;;;1.30;1.20;;;13.90;99.90;;;;;;5043754;28;20196;-58
2022/06/21 01:27:46;;;;;;;1.20;1.10;;;13.90;99.90;;;;;;5053581;28;20588;-57
2022/06/21 01:30:12;;;;;;;4.90;1.20;;;13.90;99.90;;;;;;5053142;28;20272;-57
2022/06/21 01:32:38;;;;;;;1.38;1.05;;;13.90;99.90;;;;;;5053385;28;20190;-57
2022/06/21 01:35:12;;;;;;;1.25;1.00;;;13.80;99.90;;;;;;5053044;28;20312;-57
2022/06/21 01:37:38;;;;;;;2.38;1.30;;;13.80;99.90;;;;;;5053326;28;20188;-57
2022/06/21 01:40:15;;;;;;;1.40;1.30;;;13.80;99.90;;;;;;5053303;28;20240;-57
2022/06/21 01:42:47;;;;;;;1.30;1.20;;;13.70;99.90;;;;;;5053366;28;20509;-58
2022/06/21 01:45:21;;;;;;;1.38;1.27;;;13.60;99.90;;;;;;5053141;28;20193;-57
2022/06/21 01:47:51;;;;;;;1.40;1.30;;;13.40;99.90;;;;;;5053137;28;20653;-57
2022/06/21 01:50:20;;;;;;;2.60;1.45;;;13.30;99.90;;;;;;5053024;28;20189;-57
2022/06/21 01:52:48;;;;;;;4.68;1.42;;;13.20;99.90;;;;;;5053124;28;20231;-57
2022/06/21 01:55:22;;;;;;;1.20;1.20;;;13.20;99.90;;;;;;5052802;28;20209;-57
2022/06/21 01:57:49;;;;;;;1.73;1.58;;;13.20;99.90;;;;;;5052578;28;20303;-57
2022/06/21 02:00:16;;;;;;;1.50;1.35;;;13.20;99.90;;;;;;5052547;28;20189;-57
2022/06/21 02:02:47;;;;;;;1.30;1.20;;;13.20;99.90;;;;;;5052340;28;20230;-57
2022/06/21 02:05:20;;;;;;;1.60;1.40;;;13.20;99.90;;;;;;5052354;28;20278;-57
2022/06/21 02:07:52;;;;;;;3.97;1.35;;;13.10;99.90;;;;;;5052837;28;20182;-57
2022/06/21 02:10:27;;;;;;;1.50;1.40;;;13.00;99.90;;;;;;5052560;28;20243;-57
2022/06/21 02:13:00;;;;;;;1.70;1.42;;;13.00;99.90;;;;;;5052508;28;20184;-57
2022/06/21 02:15:30;;;;;;;1.52;1.42;;;12.90;99.90;;;;;;5051081;28;20688;-57
2022/06/21 02:17:58;;;;;;;1.35;1.25;;;12.90;99.90;;;;;;5052146;28;20239;-57
2022/06/21 02:20:37;;;;;;;2.75;1.50;;;12.90;99.90;;;;;;5052289;28;20217;-57
2022/06/21 02:23:05;;;;;;;2.30;1.45;;;12.90;99.90;;;;;;5052252;28;20720;-57
2022/06/21 02:25:31;;;;;;;1.45;1.30;;;12.90;99.90;;;;;;5051834;28;20603;-57
2022/06/21 02:28:08;;;;;;;1.58;1.48;;;12.90;99.90;;;;;;5052012;28;20186;-57
2022/06/21 02:30:36;;;;;;;5.45;1.45;;;12.80;99.90;;;;;;5051865;28;20235;-57
2022/06/21 02:33:04;;;;;;;3.13;1.67;;;12.80;99.90;;;;;;5051725;28;20173;-57
2022/06/21 02:35:42;;;;;;;1.58;1.48;;;12.80;99.90;;;;;;5052123;28;20402;-57
2022/06/21 02:38:14;;;;;;;1.65;1.25;;;12.80;99.90;;;;;;5051931;28;20644;-57
2022/06/21 02:40:45;;;;;;;1.35;1.25;;;12.80;99.90;;;;;;5051882;28;20217;-57
2022/06/21 02:43:17;;;;;;;1.60;1.50;;;12.80;99.90;;;;;;5051820;28;20182;-57
2022/06/21 02:45:59;;;;;;;1.65;1.30;;;12.70;99.90;;;;;;5052258;28;20228;-57
2022/06/21 02:48:30;;;;;;;2.05;1.40;;;12.70;99.90;;;;;;5051808;28;20185;-57
2022/06/21 02:51:01;;;;;;;2.35;1.50;;;12.70;99.90;;;;;;5051730;28;20556;-57
2022/06/21 02:53:36;;;;;;;2.40;1.40;;;12.70;99.90;;;;;;5051736;28;20865;-57
2022/06/21 02:56:10;;;;;;;1.30;1.20;;;12.70;99.90;;;;;;5051389;28;20219;-58
2022/06/21 02:58:44;;;;;;;2.75;1.50;;;12.70;99.90;;;;;;5051533;28;20623;-57
2022/06/21 03:01:20;;;;;;;1.55;1.33;;;12.60;99.90;;;;;;5051785;28;20211;-57
2022/06/21 03:03:46;;;;;;;2.25;1.50;;;12.60;99.90;;;;;;5051600;28;20193;-57
2022/06/21 03:06:16;;;;;;;1.83;1.38;;;12.50;99.90;;;;;;5050837;28;20856;-58
2022/06/21 03:08:57;;;;;;;1.83;1.73;;;12.50;99.90;;;;;;5050891;28;20215;-58
2022/06/21 03:11:27;;;;;;;2.53;1.60;;;12.50;99.90;;;;;;5052119;28;20628;-58
2022/06/21 03:13:54;;;;;;;4.57;1.80;;;12.50;99.90;;;;;;5051346;28;20217;-57
2022/06/21 03:16:22;;;;;;;1.33;1.20;;;12.50;99.90;;;;;;5050504;28;20254;-57
2022/06/21 03:18:51;;;;;;;1.60;1.33;;;12.50;99.90;;;;;;5050792;28;20238;-58
2022/06/21 03:21:23;;;;;;;1.70;1.60;;;12.60;99.90;;;;;;5051533;28;20223;-57
2022/06/21 03:23:49;;;;;;;1.58;1.40;;;12.50;99.90;;;;;;5051474;28;20193;-57
2022/06/21 03:26:15;;;;;;;2.25;1.60;;;12.40;99.90;;;;;;5051934;28;20173;-57
2022/06/21 03:28:45;;;;;;;1.73;1.63;;;12.30;99.90;;;;;;5051590;28;20288;-57
2022/06/21 03:31:33;;;;;;;1.65;1.50;;;12.20;99.90;;;;;;5051380;28;20173;-57
2022/06/21 03:34:21;;;;;;;1.20;1.20;;;12.10;99.90;;;;;;5051090;28;20217;-57
2022/06/21 03:36:48;;;;;;;1.73;1.60;;;12.00;99.90;;;;;;5051733;28;20189;-58
2022/06/21 03:41:42;;;;;;;1.52;1.42;;;11.90;99.90;;;;;;5045222;28;20189;-57
2022/06/21 03:42:14;;;;;;;1.67;1.58;;;11.80;99.90;;;;;;5051101;28;20303;-58
2022/06/21 03:44:46;;;;;;;3.00;1.98;;;11.80;99.90;;;;;;5051709;28;20271;-57
2022/06/21 03:47:21;;;;;;;2.28;1.50;;;11.80;99.90;;;;;;5050787;28;20178;-57
2022/06/21 03:50:01;;;;;;;1.50;1.40;;;11.80;99.90;;;;;;5042034;28;20177;-57
2022/06/21 03:52:57;;;;;;;3.25;1.60;;;11.80;99.90;;;;;;5051737;28;20256;-57
2022/06/21 03:55:46;;;;;;;2.15;1.50;;;11.90;99.90;;;;;;5036155;28;20209;-57
2022/06/21 03:58:30;;;;;;;2.05;1.50;;;12.10;99.90;;;;;;5051029;28;20230;-57
2022/06/21 04:01:05;;;;;;;2.35;1.67;;;12.30;99.90;;;;;;5051603;28;20288;-57
2022/06/21 04:03:33;;;;;;;2.58;1.40;;;12.50;99.90;;;;;;5049934;28;20511;-58
2022/06/21 04:06:27;;;;;;;1.50;1.40;;;12.60;99.90;;;;;;5051426;28;20253;-56
2022/06/21 04:09:09;;;;;;;1.85;1.38;;;12.60;99.90;;;;;;5050799;28;20231;-57
2022/06/21 04:11:46;;;;;;;3.30;1.65;;;12.70;99.90;;;;;;5051438;28;20243;-56
2022/06/21 04:14:26;;;;;;;1.42;1.38;;;12.80;99.90;;;;;;5051193;28;20213;-56
2022/06/21 04:17:06;;;;;;;1.70;1.20;;;13.00;99.90;;;;;;5051209;28;20183;-56
2022/06/21 04:19:45;;;;;;;3.67;1.50;;;13.20;99.90;;;;;;5050783;28;20695;-55
2022/06/21 04:22:27;;;;;;;1.50;1.38;;;13.60;99.90;;;;;;5052561;28;20543;-56
2022/06/21 04:25:09;;;;;;;2.22;1.30;;;14.00;99.90;;;;;;5049402;28;20191;-57
2022/06/21 04:27:40;;;;;;;1.58;1.48;;;14.40;99.90;;;;;;5052905;28;20185;-57
2022/06/21 04:30:23;;;;;;;1.50;1.40;;;14.80;99.90;;;;;;5054883;28;20572;-57
2022/06/21 04:33:05;;;;;;;1.30;1.20;;;15.30;99.90;;;;;;5054536;28;20185;-58
2022/06/21 04:35:38;;;;;;;1.42;1.33;;;15.70;99.90;;;;;;5034727;28;20585;-57
2022/06/21 04:38:06;;;;;;;2.20;1.50;;;16.10;99.70;;;;;;5043547;28;20690;-57
2022/06/21 04:40:51;;;;;;;1.88;1.25;;;16.50;98.90;;;;;;5054601;28;20261;-58
2022/06/21 04:43:24;;;;;;;1.23;1.08;;;16.80;97.90;;;;;;5054858;28;20177;-58
2022/06/21 04:45:59;;;;;;;3.05;1.30;;;17.20;97.20;;;;;;5054205;28;20185;-57
2022/06/21 04:48:51;;;;;;;2.55;1.30;;;17.50;96.70;;;;;;5054341;28;20181;-57
2022/06/21 04:51:26;;;;;;;1.63;1.23;;;18.10;95.70;;;;;;5054454;28;20629;-57
2022/06/21 04:53:58;;;;;;;1.35;1.17;;;18.60;94.30;;;;;;5054201;28;20217;-57
2022/06/21 04:56:45;;;;;;;2.15;1.20;;;18.80;93.40;;;;;;5054421;28;20174;-57
2022/06/21 04:59:26;;;;;;;2.40;1.38;;;18.90;93.00;;;;;;5053513;28;20177;-58
2022/06/21 05:01:52;;;;;;;1.90;1.10;;;19.20;92.90;;;;;;5053876;28;20197;-57
2022/06/21 05:04:27;;;;;;;2.10;1.30;;;19.40;92.10;;;;;;5054327;28;20577;-57
2022/06/21 05:06:54;;;;;;;1.30;1.20;;;19.70;91.70;;;;;;5053349;28;20172;-57
2022/06/21 05:09:23;;;;;;;1.48;1.00;;;20.00;91.10;;;;;;5053967;28;20268;-57
2022/06/21 05:11:59;;;;;;;1.20;1.13;;;20.10;90.60;;;;;;5054109;28;20174;-58
2022/06/21 05:14:29;;;;;;;2.00;1.10;;;19.90;90.20;;;;;;5053862;28;20255;-58
2022/06/21 05:16:55;;;;;;;1.35;0.95;;;19.60;90.10;;;;;;5053651;28;20181;-57
2022/06/21 05:19:31;;;;;;;1.33;1.17;;;19.40;90.50;;;;;;5053851;28;20308;-57
2022/06/21 05:22:16;;;;;;;2.67;1.40;;;19.30;90.50;;;;;;5053528;28;20520;-57
2022/06/21 05:24:43;;;;;;;2.92;1.20;;;19.20;91.10;;;;;;5034113;28;20633;-57
2022/06/21 05:27:22;;;;;;;1.30;1.17;;;19.40;91.30;;;;;;5050771;28;20549;-57
2022/06/21 05:30:03;;;;;;;1.67;1.13;;;19.60;90.80;;;;;;5053827;28;20228;-57
2022/06/21 05:32:38;;;;;;;2.33;1.40;;;20.00;90.60;;;;;;5053287;28;20644;-57
2022/06/21 05:35:26;;;;;;;4.60;1.45;;;20.50;89.40;;;;;;5052824;28;20760;-57
2022/06/21 05:37:56;;;;;;;0.90;0.90;;;20.90;86.60;;;;;;5053719;28;20204;-57
2022/06/21 05:40:35;;;;;;;1.35;1.17;;;21.20;85.60;;;;;;5053375;28;20236;-57
2022/06/21 05:43:01;;;;;;;1.40;1.00;;;21.60;84.50;;;;;;5052896;28;20176;-57
2022/06/21 05:45:33;;;;;;;2.05;0.88;;;22.20;81.60;;;;;;5053524;28;20212;-58
2022/06/21 05:48:07;;;;;;;1.00;0.93;;;22.60;79.80;;;;;;5053413;28;20202;-58
2022/06/21 05:50:37;;;;;;;1.95;1.20;;;23.10;77.80;;;;;;5053476;28;20184;-58
2022/06/21 05:53:22;;;;;;;1.42;1.20;;;23.30;76.90;;;;;;5053456;28;20174;-58
2022/06/21 05:55:49;;;;;;;1.45;1.30;;;23.60;75.40;;;;;;5053274;28;20564;-57
2022/06/21 05:58:46;;;;;;;3.13;1.33;;;23.90;73.60;;;;;;5053617;28;20164;-57
2022/06/21 06:01:19;;;;;;;1.08;1.00;;;24.30;72.30;;;;;;5053321;28;20184;-57
2022/06/21 06:03:54;;;;;;;3.80;1.58;;;24.80;70.40;;;;;;5053086;28;20185;-58
2022/06/21 06:06:21;;;;;;;2.00;1.00;;;25.10;65.90;;;;;;5053207;28;20686;-58
2022/06/21 06:08:54;;;;;;;1.30;1.20;;;25.10;64.60;;;;;;5053070;28;20186;-58
2022/06/21 06:11:57;;;;;;;2.47;1.38;;;25.20;64.20;;;;;;5053219;28;20177;-58
2022/06/21 06:14:13;;;;;;;3.10;1.10;;;25.50;62.40;;;;;;5052910;28;20220;-58
2022/06/21 06:16:41;;;;;;;2.38;1.08;;;25.70;60.80;;;;;;5052971;28;20661;-58
2022/06/21 06:19:18;;;;;;;1.42;1.08;;;25.80;60.60;;;;;;5052703;28;20316;-58
2022/06/21 06:21:49;;;;;;;2.22;1.30;;;26.10;59.10;;;;;;5052882;28;20602;-58
2022/06/21 06:24:35;;;;;;;2.83;1.10;;;26.50;59.00;;;;;;5052798;28;20537;-58
2022/06/21 06:27:06;;;;;;;2.08;1.52;;;26.80;56.70;;;;;;5052589;28;20169;-58
2022/06/21 06:29:40;;;;;;;1.50;1.35;;;26.90;55.10;;;;;;5052755;28;20540;-58
2022/06/21 06:32:29;;;;;;;4.85;1.42;;;26.60;55.30;;;;;;5052522;28;20269;-58
2022/06/21 06:34:55;;;;;;;1.13;1.05;;;25.70;55.20;;;;;;5052446;28;20217;-57
2022/06/21 06:37:31;;;;;;;2.30;1.30;;;24.70;56.20;;;;;;5052745;28;20181;-58
2022/06/21 06:39:58;;;;;;;5.35;1.50;;;23.90;57.80;;;;;;5052622;28;20261;-58
2022/06/21 06:42:34;;;;;;;1.63;1.30;;;23.20;58.10;;;;;;5052588;28;20624;-58
2022/06/21 06:45:06;;;;;;;1.45;1.30;;;22.60;60.40;;;;;;5052206;28;20268;-58
2022/06/21 06:47:36;;;;;;;4.45;1.65;;;22.30;61.90;;;;;;5052540;28;20647;-58
2022/06/21 06:50:15;;;;;;;4.78;1.80;;;22.20;63.20;;;;;;5052381;28;20678;-58
2022/06/21 06:53:01;;;;;;;4.03;1.40;;;22.50;63.30;;;;;;5052636;28;20251;-57
2022/06/21 06:55:35;;;;;;;3.55;1.65;;;22.90;62.30;;;;;;5052406;28;20209;-58
2022/06/21 06:58:13;;;;;;;1.92;1.52;;;23.20;62.70;;;;;;5052430;28;20177;-58
2022/06/21 07:00:44;;;;;;;2.03;1.48;;;23.60;60.60;;;;;;5052483;28;20177;-58
2022/06/21 07:03:13;;;;;;;4.53;1.50;;;23.70;60.40;;;;;;5052253;28;20280;-57
2022/06/21 07:06:13;;;;;;;2.03;1.40;;;23.90;59.40;;;;;;5052316;28;20238;-58
2022/06/21 07:08:53;;;;;;;2.63;1.50;;;24.10;59.40;;;;;;5052421;28;20178;-58
2022/06/21 07:11:27;;;;;;;2.75;1.25;;;24.30;59.20;;;;;;5052324;28;20173;-58
2022/06/21 07:13:53;;;;;;;1.08;1.08;;;24.60;57.70;;;;;;5052068;28;20704;-58
2022/06/21 07:16:23;;;;;;;4.57;1.20;;;25.10;58.20;;;;;;5052288;28;20177;-58
2022/06/21 07:18:51;;;;;;;2.58;1.38;;;25.70;56.60;;;;;;5052058;28;20687;-58
2022/06/21 07:21:18;;;;;;;3.50;1.40;;;25.60;57.10;;;;;;5052250;28;20174;-58
2022/06/21 07:23:45;;;;;;;3.05;1.33;;;25.90;56.40;;;;;;5052035;28;20181;-58
2022/06/21 07:26:23;;;;;;;2.28;1.58;;;26.10;55.60;;;;;;5052044;28;20180;-58
2022/06/21 07:28:58;;;;;;;1.85;1.55;;;25.70;55.50;;;;;;5052015;28;20181;-58
2022/06/21 07:31:35;;;;;;;3.22;1.35;;;25.50;56.00;;;;;;5052126;28;20711;-58
2022/06/21 07:34:19;;;;;;;1.73;1.10;;;25.50;56.10;;;;;;5051907;28;20208;-58
2022/06/21 07:37:02;;;;;;;1.65;1.45;;;25.50;56.10;;;;;;5052041;28;20523;-58
2022/06/21 07:39:37;;;;;;;4.00;1.52;;;24.70;55.80;;;;;;5052016;28;20238;-57
2022/06/21 07:42:13;;;;;;;3.08;1.60;;;23.60;57.20;;;;;;5051958;28;20208;-58
2022/06/21 07:44:41;;;;;;;3.40;1.50;;;22.60;59.60;;;;;;5051979;28;20200;-57
2022/06/21 07:47:17;;;;;;;2.60;1.42;;;22.10;62.10;;;;;;5051759;28;20192;-57
2022/06/21 07:49:50;;;;;;;4.30;1.70;;;21.60;63.10;;;;;;5051896;28;20205;-58
2022/06/21 07:52:29;;;;;;;3.78;1.50;;;21.30;64.50;;;;;;5050632;28;20543;-58
2022/06/21 07:55:00;;;;;;;3.85;1.40;;;21.10;65.40;;;;;;5051817;28;20233;-57
2022/06/21 07:57:42;;;;;;;2.53;1.58;;;20.90;66.20;;;;;;5053871;28;20173;-57
2022/06/21 08:00:15;;;;;;;2.35;1.58;;;20.80;67.00;;;;;;5055423;28;20185;-57
2022/06/21 08:08:25;;;;;;;2.50;1.67;;;21.40;68.90;;;;;;5055451;28;20564;-58
2022/06/21 08:10:57;;;;;;;3.45;1.55;;;22.30;66.50;;;;;;5055195;28;20207;-58
2022/06/21 08:13:22;;;;;;;3.67;1.40;;;23.10;66.00;;;;;;5055325;28;20178;-58
2022/06/21 08:16:18;;;;;;;1.83;1.48;;;23.70;64.00;;;;;;5055181;28;20678;-58
2022/06/21 08:19:02;;;;;;;2.45;1.50;;;24.00;63.10;;;;;;5051995;28;20201;-58
2022/06/21 08:21:31;;;;;;;1.70;1.30;;;24.30;62.50;;;;;;5055339;28;20193;-58
2022/06/21 08:24:13;;;;;;;5.00;1.70;;;25.00;62.50;;;;;;5055097;28;20169;-58
2022/06/21 08:27:00;;;;;;;3.40;1.50;;;25.70;59.40;;;;;;5055197;28;20237;-58
2022/06/21 08:29:38;;;;;;;2.72;1.38;;;25.80;57.80;;;;;;5055155;28;20173;-58
2022/06/21 08:32:09;;;;;;;4.32;1.42;;;25.70;57.70;;;;;;5054943;28;20169;-58
2022/06/21 08:34:48;;;;;;;5.68;1.40;;;25.80;57.70;;;;;;5055207;28;20224;-58
2022/06/21 08:37:21;;;;;;;3.22;1.40;;;25.80;57.30;;;;;;5055019;28;20178;-58
2022/06/21 08:40:10;;;;;;;6.78;1.52;;;25.90;56.90;;;;;;5054849;28;20182;-58
2022/06/21 08:43:05;;;;;;;2.15;1.45;;;26.20;56.90;;;;;;5055000;28;20177;-58
2022/06/21 08:45:48;;;;;;;2.67;1.70;;;26.60;57.10;;;;;;5054898;28;20181;-58
2022/06/21 08:48:32;;;;;;;2.33;1.60;;;26.80;56.00;;;;;;5054826;28;20177;-58
2022/06/21 08:51:16;;;;;;;2.80;1.55;;;26.70;55.80;;;;;;5054476;28;20170;-58
2022/06/21 08:53:58;;;;;;;3.53;1.60;;;26.50;55.80;;;;;;5054579;28;20181;-57
2022/06/21 08:56:43;;;;;;;2.65;1.80;;;26.50;56.50;;;;;;5054451;28;20668;-58
2022/06/21 08:59:31;;;;;;;1.60;1.50;;;26.50;57.30;;;;;;5054491;28;20260;-58
2022/06/21 09:02:15;;;;;;;5.13;2.10;;;26.50;56.70;;;;;;5054407;28;20178;-58
2022/06/21 09:05:19;;;;;;;4.32;1.83;;;26.50;56.80;;;;;;5054359;28;20213;-58
2022/06/21 09:08:22;;;;;;;2.28;1.60;;;26.50;56.90;;;;;;5054034;28;20177;-58
2022/06/21 09:11:16;;;;;;;7.43;1.67;;;26.20;57.10;;;;;;5054149;28;20628;-58
2022/06/21 09:13:59;;;;;;;2.15;1.50;;;26.20;57.40;;;;;;5054197;28;20180;-57
2022/06/21 09:16:34;;;;;;;1.50;1.40;;;26.00;58.10;;;;;;5054198;28;20702;-58
2022/06/21 09:19:09;;;;;;;2.85;1.52;;;25.80;57.80;;;;;;5054042;28;20225;-58
2022/06/21 09:22:27;;;;;;;3.35;1.50;;;25.50;58.10;;;;;;5054206;28;20180;-58
2022/06/21 09:25:24;;;;;;;2.75;1.77;;;25.30;58.70;;;;;;5031804;28;20185;-58
2022/06/21 09:27:54;;;;;;;3.63;1.52;;;25.20;60.00;;;;;;5053965;28;20178;-58
2022/06/21 09:30:23;;;;;;;4.50;1.80;;;25.10;59.80;;;;;;5054134;28;20178;-58
2022/06/21 09:32:59;;;;;;;3.35;1.50;;;25.40;60.20;;;;;;5053850;28;20184;-57
2022/06/21 09:35:36;;;;;;;1.48;1.27;;;25.90;59.60;;;;;;5053692;28;20224;-58
2022/06/21 09:38:02;;;;;;;3.10;1.67;;;26.50;58.20;;;;;;5053714;28;20719;-58
2022/06/21 09:40:33;;;;;;;3.17;1.50;;;26.90;58.00;;;;;;5053710;28;20228;-58
2022/06/21 09:43:02;;;;;;;2.97;1.60;;;27.30;56.80;;;;;;5053622;28;20535;-58
2022/06/21 09:45:37;;;;;;;4.82;1.73;;;27.60;57.00;;;;;;5053670;28;20177;-58
2022/06/21 09:48:19;;;;;;;5.88;1.60;;;27.80;55.70;;;;;;5053653;28;20224;-58
2022/06/21 09:51:07;;;;;;;1.50;1.40;;;27.60;55.00;;;;;;5053486;28;20173;-58
2022/06/21 09:54:03;;;;;;;2.88;1.80;;;27.40;55.90;;;;;;5053760;28;20192;-58
2022/06/21 09:56:53;;;;;;;2.20;1.52;;;27.30;55.40;;;;;;5053439;28;20185;-57
2022/06/21 09:59:26;;;;;;;4.07;1.60;;;27.30;56.10;;;;;;5053420;28;20169;-58
2022/06/21 10:02:17;;;;;;;2.53;1.70;;;27.20;55.40;;;;;;5053356;28;20189;-58
2022/06/21 10:04:51;;;;;;;1.40;1.30;;;27.00;55.70;;;;;;5053401;28;20505;-58
2022/06/21 10:08:00;;;;;;;1.70;1.42;;;26.90;56.40;;;;;;5053335;28;20177;-58
2022/06/21 10:10:45;;;;;;;2.42;1.55;;;27.00;57.00;;;;;;5053133;28;20220;-57
2022/06/21 10:13:42;;;;;;;2.38;1.50;;;27.40;57.30;;;;;;5053246;28;20187;-57
2022/06/21 10:16:23;;;;;;;3.08;1.42;;;27.80;56.20;;;;;;5053042;28;20192;-57
2022/06/21 10:19:10;;;;;;;3.67;2.00;;;28.50;57.30;;;;;;5052622;28;20276;-57
2022/06/21 10:21:46;;;;;;;2.22;1.58;;;28.90;55.20;;;;;;5052922;28;20640;-57
2022/06/21 10:24:24;;;;;;;2.58;1.60;;;29.20;54.60;;;;;;5052930;28;20196;-57
2022/06/21 10:27:05;;;;;;;1.45;1.35;;;29.30;53.80;;;;;;5052840;28;20654;-57
2022/06/21 10:29:40;;;;;;;4.97;1.85;;;29.40;53.60;;;;;;5052868;28;20192;-57
2022/06/21 10:32:23;;;;;;;4.55;1.63;;;29.40;52.50;;;;;;5052625;28;20266;-57
2022/06/21 10:35:06;;;;;;;3.75;1.55;;;29.10;52.10;;;;;;5052623;28;20328;-57
2022/06/21 10:37:50;;;;;;;4.32;2.00;;;28.90;52.60;;;;;;5052846;28;20239;-57
2022/06/21 10:40:43;;;;;;;2.33;1.40;;;28.70;52.30;;;;;;5052653;28;20176;-57
2022/06/21 10:43:28;;;;;;;1.98;1.50;;;28.50;53.10;;;;;;5052558;28;20647;-57
2022/06/21 10:45:58;;;;;;;4.85;1.70;;;28.60;53.50;;;;;;5052604;28;20186;-57
2022/06/21 10:49:05;;;;;;;1.98;1.67;;;28.80;53.00;;;;;;5052601;28;20185;-57
2022/06/21 10:51:55;;;;;;;4.45;1.58;;;28.80;53.50;;;;;;5041892;28;20738;-57
2022/06/21 10:54:49;;;;;;;3.55;1.55;;;28.90;53.00;;;;;;5052450;28;20734;-57
2022/06/21 10:58:03;;;;;;;3.25;1.80;;;28.80;52.70;;;;;;5052519;28;20166;-57
2022/06/21 11:04:02;;;;;;;4.53;2.05;;;29.00;53.20;;;;;;5052382;28;20590;-57
2022/06/21 11:06:36;;;;;;;2.58;1.80;;;29.00;52.90;;;;;;5052397;28;20205;-57
2022/06/21 11:09:06;;;;;;;3.03;1.40;;;29.00;53.00;;;;;;5052281;28;20173;-57
2022/06/21 11:15:07;;;;;;;2.40;1.70;;;29.60;53.60;;;;;;5052252;28;20576;-57
2022/06/21 11:18:02;;;;;;;3.53;1.60;;;29.90;52.20;;;;;;5052187;28;20174;-58
2022/06/21 11:20:44;;;;;;;4.43;1.50;;;29.90;51.30;;;;;;5051769;28;20241;-57
2022/06/21 11:23:28;;;;;;;1.88;1.50;;;29.70;51.70;;;;;;5052145;28;20215;-57
2022/06/21 11:26:22;;;;;;;5.15;1.98;;;29.60;53.30;;;;;;5052101;28;20173;-58
2022/06/21 11:29:25;;;;;;;2.10;1.73;;;29.80;51.80;;;;;;5051914;28;20659;-57
2022/06/21 11:32:14;;;;;;;3.90;1.50;;;29.80;51.50;;;;;;5053298;28;20182;-57
2022/06/21 11:34:58;;;;;;;4.32;1.42;;;29.90;53.00;;;;;;5056061;28;20222;-57
2022/06/21 11:37:40;;;;;;;3.65;1.50;;;29.90;51.90;;;;;;5056068;28;20196;-57
2022/06/21 11:40:33;;;;;;;4.35;1.65;;;29.80;51.60;;;;;;5055988;28;20223;-57
2022/06/21 11:42:59;;;;;;;4.18;1.60;;;29.80;52.20;;;;;;5055964;28;20189;-57
2022/06/21 11:45:48;;;;;;;2.65;1.60;;;29.90;53.50;;;;;;5055995;28;20526;-57
2022/06/21 11:48:29;;;;;;;1.88;1.58;;;30.20;52.10;;;;;;5055804;28;20181;-57
2022/06/21 11:51:10;;;;;;;4.68;2.20;;;30.10;51.40;;;;;;5055830;28;20537;-57
2022/06/21 11:53:47;;;;;;;3.60;1.73;;;30.00;51.70;;;;;;5055756;28;20184;-57
2022/06/21 11:56:20;;;;;;;5.75;1.90;;;29.80;52.40;;;;;;5055589;28;20207;-57
2022/06/21 11:58:50;;;;;;;3.85;1.80;;;29.70;52.00;;;;;;5055601;28;20177;-57
2022/06/21 12:01:37;;;;;;;2.83;1.98;;;29.70;52.40;;;;;;5055669;28;20188;-57
2022/06/21 12:04:22;;;;;;;2.20;1.95;;;29.70;52.80;;;;;;5055627;28;20177;-57
2022/06/21 12:07:09;;;;;;;3.45;1.80;;;29.80;52.90;;;;;;5055590;28;20184;-58
2022/06/21 12:09:55;;;;;;;2.90;1.70;;;30.10;53.10;;;;;;5055621;28;20192;-57
2022/06/21 12:12:30;;;;;;;2.20;1.63;;;30.20;51.70;;;;;;5055581;28;20230;-58
2022/06/21 12:15:02;;;;;;;3.75;1.70;;;30.40;52.30;;;;;;5055339;28;20255;-57
2022/06/21 12:17:53;;;;;;;1.83;1.63;;;30.30;51.40;;;;;;5055406;28;20197;-57
2022/06/21 12:20:27;;;;;;;2.28;1.60;;;30.00;51.20;;;;;;5052398;28;20360;-58
2022/06/21 12:23:01;;;;;;;2.30;1.67;;;29.60;52.00;;;;;;5055202;28;20281;-58
2022/06/21 12:25:26;;;;;;;3.25;2.10;;;29.40;52.30;;;;;;5055174;28;20528;-58
2022/06/21 12:27:53;;;;;;;2.53;1.80;;;29.10;52.90;;;;;;5055141;28;20174;-58
2022/06/21 12:30:22;;;;;;;5.32;1.75;;;28.90;53.40;;;;;;5055219;28;20185;-57
2022/06/21 12:32:50;;;;;;;2.72;1.85;;;28.70;54.30;;;;;;5055024;28;20623;-57
2022/06/21 12:35:19;;;;;;;2.65;1.73;;;28.70;54.30;;;;;;5055276;28;20296;-57
2022/06/21 12:37:52;;;;;;;1.95;1.77;;;28.80;54.70;;;;;;5054889;28;20246;-58
2022/06/21 12:40:37;;;;;;;1.88;1.70;;;29.10;54.60;;;;;;5055122;28;20177;-57
2022/06/21 12:43:25;;;;;;;2.90;2.00;;;29.40;54.60;;;;;;5054340;28;20202;-57
2022/06/21 12:46:24;;;;;;;3.00;1.73;;;29.70;53.60;;;;;;5054889;28;20216;-57
2022/06/21 12:48:52;;;;;;;1.85;1.73;;;29.80;53.30;;;;;;5054806;28;20227;-57
2022/06/21 12:51:32;;;;;;;4.68;1.80;;;29.70;53.40;;;;;;5054950;28;20182;-57
2022/06/21 12:54:22;;;;;;;3.53;1.65;;;29.70;53.30;;;;;;5054648;28;20209;-57
2022/06/21 12:57:14;;;;;;;4.18;1.92;;;29.80;53.50;;;;;;5054581;28;20180;-57
2022/06/21 12:59:50;;;;;;;2.05;1.77;;;29.80;53.30;;;;;;5054626;28;20178;-57
2022/06/21 13:02:34;;;;;;;2.55;1.80;;;29.80;53.20;;;;;;5054744;28;20203;-57
2022/06/21 13:05:31;;;;;;;3.00;1.70;;;29.70;53.50;;;;;;5054399;28;20170;-57
2022/06/21 13:08:29;;;;;;;4.95;2.00;;;29.50;53.80;;;;;;5054189;28;20216;-57
2022/06/21 13:11:15;;;;;;;2.90;1.80;;;29.40;54.40;;;;;;5042138;28;20181;-57
2022/06/21 13:14:24;;;;;;;3.08;2.00;;;29.40;54.70;;;;;;5054271;28;20177;-57
2022/06/21 13:17:18;;;;;;;4.00;2.17;;;29.50;54.50;;;;;;5054353;28;20238;-57
2022/06/21 13:20:21;;;;;;;1.85;1.65;;;29.40;53.90;;;;;;5053964;28;20855;-57
2022/06/21 13:23:07;;;;;;;2.40;1.75;;;29.40;54.30;;;;;;5054121;28;20181;-57
2022/06/21 13:25:46;;;;;;;3.70;1.98;;;29.50;54.50;;;;;;5049883;28;20188;-57
2022/06/21 13:28:43;;;;;;;4.13;1.92;;;29.60;54.00;;;;;;5054015;28;20636;-57
2022/06/21 13:31:25;;;;;;;2.47;2.00;;;29.70;54.30;;;;;;5054000;28;20178;-57
2022/06/21 13:34:06;;;;;;;4.43;2.53;;;29.70;54.30;;;;;;5053847;28;20216;-57
2022/06/21 13:36:47;;;;;;;4.72;2.33;;;29.80;55.00;;;;;;5053710;28;20632;-57
2022/06/21 13:39:34;;;;;;;2.35;1.80;;;30.00;55.10;;;;;;5053997;28;20184;-57
2022/06/21 13:45:24;;;;;;;6.53;1.92;;;30.30;54.30;;;;;;5048978;28;20201;-57
2022/06/21 13:48:04;;;;;;;6.15;2.40;;;30.30;54.00;;;;;;5053623;28;20169;-58
2022/06/21 13:51:14;;;;;;;6.53;2.38;;;30.30;53.50;;;;;;5053645;28;20169;-57
2022/06/21 13:54:11;;;;;;;2.83;1.88;;;30.30;53.50;;;;;;5030800;28;20182;-57
2022/06/21 13:56:47;;;;;;;2.92;2.00;;;30.30;53.60;;;;;;5031270;28;20178;-57
2022/06/21 13:59:30;;;;;;;3.45;1.95;;;30.40;53.80;;;;;;5048947;28;20192;-57